Soham, United Kingdom
Current Conditions -  °F | °C
As of 1:23 PM on Thursday 18 Dec 2014 (Local Time) from EGUN Reporting Station
Overcast Overcast  
Wind Chill: 57°   Ceiling: 1900
Heat Index: 57°   Visibility: 6mi
Dew Point: 50°   Wind: 20mph
Humidity: 77%   Direction: 240°WSW
Pressure: 29.69"   Gusts: 31mph
Location:  52.33°N, 0.34°E
Report Text: EGUN 181323Z AUTO 24017G27KT 9999 OVC019 14/10 A2969 RMK AO2 $
Loading
Personal Weather Stations






























Interactive Weather Map New forecast layout! Learn more

10-Day Weather Forecast

Advertisements
Track Severe Weather on mobile